Weather History for KCMR - March, 2014

Change the Weather History Date:

Monday, March 17, 2014

  Actual Average (KFLG) Record (KFLG)
Temperature  
Mean Temperature 44 °F 37 °F  
Max Temperature 62 °F 51 °F 73 °F (2007)
Min Temperature 26 °F 24 °F 3 °F (1991)
Degree Days  
Heating Degree Days 21 28  
Month to date heating degree days 496  
Since 1 July heating degree days 5335  
Cooling Degree Days 0 0  
Month to date cooling degree days 0  
Year to date cooling degree days 0  
Moisture  
Dew Point 9 °F    
Average Humidity 27    
Maximum Humidity 55    
Minimum Humidity 11    
Precipitation  
Precipitation 0.00 in 0.06 in 0.73 in (1922)
Month to date precipitation 1.26  
Year to date precipitation 5.47  
Snow  
Snow 0.00 in 0.60 in 5.80 in (1963)
Month to date snowfall 12.7  
Since 1 July snowfall 85.9  
Snow Depth -    
Sea Level Pressure  
Sea Level Pressure 30.03 in    
Wind  
Wind Speed 13 mph (SSW)    
Max Wind Speed 29 mph    
Max Gust Speed 40 mph    
Visibility 10 miles    
Events      
T = Trace of Precipitation, MM = Missing Value Source: NWS Daily Summary

Daily Weather History Graph

Daily Weather History Graph

Search for Another Location

Airport or City:

Trip Planner

Search our weather history database for the weather conditions in past years. The results will help you decide how hot, cold, wet, or windy it might be!

Date:

Astronomy

Mar. 17, 2014 Rise Set
Actual Time 6:36 AM MST 6:38 PM MST
Civil Twilight 6:11 AM MST 7:03 PM MST
Nautical Twilight 5:41 AM MST 7:32 PM MST
Astronomical Twilight 5:11 AM MST 8:02 PM MST
Moon 7:54 PM MST (3/17) 6:57 AM MST (3/17)
Length of Visible Light 12h 52m
Length of Day
12h 01m
Full, 99% of the Moon is Illuminated
Mar 17
Full
Mar 23
Last Quarter
Mar 30
New
Apr 7
First Quarter
Apr 15
Full

Hourly Weather History & Observations

Time (MST) Temp. Windchill Dew Point Humidity Pressure Visibility Wind Dir Wind Speed Gust Speed Precip Events Conditions
12:15 AM 30.2 °F 22.6 °F 10.4 °F 44% 30.33 in 10.0 mi SE 8.1 mph - N/A   Clear
12:35 AM 30.2 °F 21.3 °F 12.2 °F 47% 30.32 in 10.0 mi SE 10.4 mph - N/A   Clear
12:55 AM 28.4 °F 19.7 °F 12.2 °F 51% 30.32 in 10.0 mi SE 9.2 mph - N/A   Clear
1:15 AM 28.4 °F 20.4 °F 12.2 °F 51% 30.31 in 10.0 mi SE 8.1 mph - N/A   Clear
1:35 AM 28.4 °F 20.4 °F 12.2 °F 51% 30.30 in 10.0 mi SE 8.1 mph - N/A   Clear
1:55 AM 28.4 °F 19.7 °F 12.2 °F 51% 30.29 in 10.0 mi SE 9.2 mph - N/A   Clear
2:15 AM 28.4 °F 19.7 °F 12.2 °F 51% 30.27 in 10.0 mi SE 9.2 mph - N/A   Clear
2:35 AM 28.4 °F 21.2 °F 12.2 °F 51% 30.26 in 10.0 mi SE 6.9 mph - N/A   Clear
2:55 AM 28.4 °F 20.4 °F 12.2 °F 51% 30.25 in 10.0 mi SE 8.1 mph - N/A   Clear
3:15 AM 28.4 °F 19.1 °F 12.2 °F 51% 30.24 in 10.0 mi SE 10.4 mph - N/A   Clear
3:35 AM 28.4 °F 20.4 °F 12.2 °F 51% 30.22 in 10.0 mi SE 8.1 mph - N/A   Clear
3:55 AM 28.4 °F 19.7 °F 12.2 °F 51% 30.21 in 10.0 mi SE 9.2 mph - N/A   Clear
4:15 AM 26.6 °F 18.2 °F 12.2 °F 55% 30.20 in 10.0 mi SE 8.1 mph - N/A   Clear
4:35 AM 28.4 °F 20.4 °F 12.2 °F 51% 30.19 in 10.0 mi SSE 8.1 mph - N/A   Clear
4:55 AM 28.4 °F 20.4 °F 12.2 °F 51% 30.19 in 10.0 mi SSE 8.1 mph - N/A   Clear
5:15 AM 28.4 °F 19.7 °F 12.2 °F 51% 30.18 in 10.0 mi SE 9.2 mph - N/A   Clear
5:35 AM 28.4 °F 21.2 °F 10.4 °F 47% 30.17 in 10.0 mi SE 6.9 mph - N/A   Clear
5:55 AM 28.4 °F 19.7 °F 10.4 °F 47% 30.16 in 10.0 mi SE 9.2 mph - N/A   Clear
6:15 AM 26.6 °F 19.1 °F 12.2 °F 55% 30.15 in 10.0 mi SE 6.9 mph - N/A   Clear
6:35 AM 30.2 °F 23.4 °F 10.4 °F 44% 30.14 in 10.0 mi SE 6.9 mph - N/A   Clear
6:55 AM 35.6 °F 29.9 °F 8.6 °F 33% 30.13 in 10.0 mi SE 6.9 mph - N/A   Clear
7:15 AM 35.6 °F 29.9 °F 10.4 °F 35% 30.12 in 10.0 mi SE 6.9 mph - N/A   Clear
7:35 AM 46.4 °F 40.7 °F 8.6 °F 22% 30.10 in 10.0 mi SSW 12.7 mph 19.6 mph N/A   Clear
7:55 AM 48.2 °F - 8.6 °F 20% 30.10 in 10.0 mi SSW 17.3 mph 21.9 mph N/A   Clear
8:15 AM 50.0 °F - 8.6 °F 19% 30.09 in 10.0 mi South 19.6 mph 25.3 mph N/A   Clear
8:35 AM 50.0 °F - 8.6 °F 19% 30.08 in 10.0 mi SSW 20.7 mph 27.6 mph N/A   Clear
8:55 AM 51.8 °F - 8.6 °F 18% 30.07 in 10.0 mi South 20.7 mph 28.8 mph N/A   Clear
9:15 AM 53.6 °F - 8.6 °F 16% 30.05 in 10.0 mi South 24.2 mph 31.1 mph N/A   Clear
9:35 AM 53.6 °F - 8.6 °F 16% 30.05 in 10.0 mi South 26.5 mph 36.8 mph N/A   Clear
9:55 AM 53.6 °F - 6.8 °F 15% 30.07 in 10.0 mi SSW 26.5 mph 34.5 mph N/A   Clear
10:15 AM 53.6 °F - 8.6 °F 16% 30.05 in 10.0 mi SSW 23.0 mph 33.4 mph N/A   Clear
10:35 AM 55.4 °F - 8.6 °F 15% 30.05 in 10.0 mi SSW 24.2 mph 34.5 mph N/A   Clear
10:55 AM 55.4 °F - 8.6 °F 15% 30.05 in 10.0 mi SSW 25.3 mph 39.1 mph N/A   Clear
11:15 AM 55.4 °F - 10.4 °F 17% 30.05 in 10.0 mi SSW 18.4 mph 34.5 mph N/A   Clear
11:35 AM 57.2 °F - 10.4 °F 16% 30.00 in 10.0 mi South 21.9 mph 31.1 mph N/A   Clear
11:55 AM 59.0 °F - 8.6 °F 14% 29.99 in 10.0 mi South 26.5 mph 36.8 mph N/A   Clear
12:15 PM 59.0 °F - 8.6 °F 14% 29.97 in 10.0 mi South 21.9 mph 39.1 mph N/A   Clear
12:35 PM 59.0 °F - 10.4 °F 15% 29.97 in 10.0 mi SSW 23.0 mph 40.3 mph N/A   Clear
12:55 PM 59.0 °F - 8.6 °F 14% 29.96 in 10.0 mi SW 25.3 mph 31.1 mph N/A   Clear
1:15 PM 62.6 °F - 8.6 °F 12% 29.95 in 10.0 mi SW 26.5 mph 34.5 mph N/A   Clear
1:35 PM 62.6 °F - 6.8 °F 11% 29.94 in 10.0 mi SW 28.8 mph 39.1 mph N/A   Clear
1:55 PM 60.8 °F - 6.8 °F 12% 29.93 in 10.0 mi SW 25.3 mph 39.1 mph N/A   Clear
2:15 PM - - - N/A% - 10.0 mi North - - N/A   Unknown
2:35 PM 60.8 °F - 6.8 °F 12% 29.93 in 10.0 mi WSW 21.9 mph 32.2 mph N/A   Clear
2:55 PM 62.6 °F - 6.8 °F 11% 29.92 in 10.0 mi WSW 24.2 mph 31.1 mph N/A   Clear
3:15 PM 59.0 °F - 8.6 °F 14% 29.91 in 10.0 mi WSW 20.7 mph 32.2 mph N/A   Clear
3:35 PM 59.0 °F - 8.6 °F 14% 29.90 in 10.0 mi WSW 24.2 mph 33.4 mph N/A   Clear
3:55 PM 59.0 °F - 8.6 °F 14% 29.89 in 10.0 mi SW 18.4 mph 29.9 mph N/A   Clear
4:15 PM 59.0 °F - 8.6 °F 14% 29.89 in 10.0 mi WSW 25.3 mph 29.9 mph N/A   Clear
4:35 PM 59.0 °F - 8.6 °F 14% 29.88 in 10.0 mi SW 15.0 mph 28.8 mph N/A   Clear
4:55 PM 59.0 °F - 8.6 °F 14% 29.88 in 10.0 mi SW 18.4 mph 25.3 mph N/A   Clear
5:15 PM 59.0 °F - 3.2 °F 11% 29.88 in 10.0 mi West 25.3 mph 31.1 mph N/A   Clear
5:35 PM 57.2 °F - 5.0 °F 12% 29.88 in 10.0 mi WSW 21.9 mph 28.8 mph N/A   Clear
5:55 PM 57.2 °F - 5.0 °F 12% 29.87 in 10.0 mi WSW 19.6 mph 26.5 mph N/A   Clear
6:15 PM 55.4 °F - 6.8 °F 14% 29.87 in 10.0 mi WSW 15.0 mph 27.6 mph N/A   Clear
6:35 PM 53.6 °F - 8.6 °F 16% 29.87 in 10.0 mi WSW 15.0 mph 21.9 mph N/A   Clear
6:55 PM 53.6 °F - 8.6 °F 16% 29.86 in 10.0 mi WSW 11.5 mph 18.4 mph N/A   Clear
7:15 PM 51.8 °F - 10.4 °F 19% 29.86 in 10.0 mi WSW 16.1 mph - N/A   Clear
7:35 PM 51.8 °F - 12.2 °F 21% 29.86 in 10.0 mi SW 12.7 mph 18.4 mph N/A   Clear
7:55 PM 50.0 °F - 12.2 °F 22% 29.86 in 10.0 mi SW 12.7 mph - N/A   Clear
8:15 PM 50.0 °F - 12.2 °F 22% 29.87 in 10.0 mi SW 10.4 mph - N/A   Clear
8:35 PM 48.2 °F - 12.2 °F 24% 29.87 in 10.0 mi SW 11.5 mph - N/A   Clear
8:55 PM 48.2 °F - 14.0 °F 25% 29.87 in 10.0 mi SW 11.5 mph - N/A   Clear
9:15 PM 46.4 °F 41.5 °F 14.0 °F 27% 29.88 in 10.0 mi WNW 10.4 mph - N/A   Clear
9:35 PM 46.4 °F 42.4 °F 12.2 °F 25% 29.89 in 10.0 mi West 8.1 mph - N/A   Clear
9:55 PM 44.6 °F 40.2 °F 8.6 °F 23% 29.90 in 10.0 mi WNW 8.1 mph - N/A   Clear
10:15 PM 41.0 °F 38.0 °F 1.4 °F 19% 29.90 in 10.0 mi WNW 4.6 mph - N/A   Clear
10:35 PM 41.0 °F 36.4 °F -0.4 °F 18% 29.91 in 10.0 mi West 6.9 mph - N/A   Clear
10:55 PM 41.0 °F 35.8 °F -0.4 °F 18% 29.91 in 10.0 mi NW 8.1 mph - N/A   Clear
11:15 PM 41.0 °F 36.4 °F 5.0 °F 23% 29.92 in 10.0 mi NW 6.9 mph - N/A   Clear
11:35 PM 39.2 °F 34.2 °F 6.8 °F 26% 29.92 in 10.0 mi WNW 6.9 mph - N/A   Clear
11:55 PM 39.2 °F 35.0 °F 6.8 °F 26% 29.93 in 10.0 mi NW 5.8 mph - N/A   Clear